DKH1602 WSSS-ZSPD
Flight info
| Callsign | DKH1602 |
|---|---|
| Flight time | N/A |
| Altitude | 32000 |
| Route | VMR9B VMR M771 DUDIS/K0861F320 M771 DAMEL/K0856F350 M771 DOSUT/N0460F340 M771 DULOP/N0461F350 M771 DUMOL/N0460F340 J103 BEKOL/K0856S1100 A461 SHL/K0843S1070 G471 EGEDA/K0856S1100 G471 PLT/K0835S1070 A599 ELNEX G204 SHZ W58 BK BK91A |
| Aircraft | A321/M-SDE3FGHIRWY/LB1 |
Departure
| Time | 2026-05-04 07:58 |
|---|---|
| Airport | Singapore Changi Airport (WSSS) |
Arrival
| Time | N/A |
|---|---|
| Airport | Shanghai Pudong International Airport (ZSPD) |
| Time | Latitude | Longitude | Altitude | Speed | Heading |
|---|---|---|---|---|---|
| 2026-05-04 07:12 | 1.36661 | 103.99042 | 30 ft | 0 kts | 275° |
| 2026-05-04 07:49 | 1.36660 | 103.99056 | 30 ft | 4 kts | 277° |
| 2026-05-04 07:49 | 1.36656 | 103.99083 | 30 ft | 4 kts | 278° |
| 2026-05-04 07:49 | 1.36653 | 103.99104 | 30 ft | 4 kts | 290° |
| 2026-05-04 07:50 | 1.36638 | 103.99122 | 30 ft | 4 kts | 342° |
| 2026-05-04 07:50 | 1.36614 | 103.99126 | 30 ft | 4 kts | 352° |
| 2026-05-04 07:50 | 1.36601 | 103.99128 | 30 ft | 0 kts | 352° |
| 2026-05-04 07:53 | 1.36603 | 103.99128 | 30 ft | 1 kts | 352° |
| 2026-05-04 07:54 | 1.36524 | 103.99533 | 30 ft | 13 kts | 113° |
| 2026-05-04 07:55 | 1.36491 | 103.99610 | 30 ft | 11 kts | 113° |
| 2026-05-04 07:55 | 1.36461 | 103.99679 | 30 ft | 10 kts | 113° |
| 2026-05-04 07:55 | 1.36434 | 103.99743 | 30 ft | 10 kts | 113° |
| 2026-05-04 07:55 | 1.36406 | 103.99807 | 30 ft | 10 kts | 113° |
| 2026-05-04 07:56 | 1.36376 | 103.99864 | 30 ft | 8 kts | 134° |
| 2026-05-04 07:56 | 1.36326 | 103.99879 | 30 ft | 7 kts | 172° |
| 2026-05-04 07:56 | 1.36273 | 103.99885 | 30 ft | 8 kts | 174° |
| 2026-05-04 07:56 | 1.36217 | 103.99889 | 30 ft | 8 kts | 176° |
| 2026-05-04 07:57 | 1.36168 | 103.99886 | 30 ft | 6 kts | 200° |
| 2026-05-04 07:57 | 1.36131 | 103.99870 | 30 ft | 5 kts | 202° |
| 2026-05-04 07:57 | 1.36081 | 103.99849 | 30 ft | 15 kts | 202° |
| 2026-05-04 07:57 | 1.35788 | 103.99725 | 30 ft | 78 kts | 202° |
| 2026-05-04 07:58 | 1.35104 | 103.99437 | 31 ft | 132 kts | 203° |
| 2026-05-04 07:58 | 1.34119 | 103.99020 | 33 ft | 174 kts | 203° |
| 2026-05-04 07:58 | 1.32970 | 103.98533 | 459 ft | 180 kts | 203° |
| 2026-05-04 07:58 | 1.31801 | 103.98042 | 984 ft | 185 kts | 203° |
| 2026-05-04 07:59 | 1.30609 | 103.97549 | 1565 ft | 186 kts | 203° |
| 2026-05-04 07:59 | 1.29399 | 103.97042 | 1851 ft | 196 kts | 204° |
| 2026-05-04 07:59 | 1.28103 | 103.96496 | 2042 ft | 207 kts | 204° |
| 2026-05-04 07:59 | 1.26737 | 103.95918 | 2227 ft | 219 kts | 204° |
| 2026-05-04 08:00 | 1.25302 | 103.95307 | 2399 ft | 232 kts | 204° |
| 2026-05-04 08:00 | 1.23688 | 103.94806 | 2466 ft | 257 kts | 181° |
| 2026-05-04 08:00 | 1.21950 | 103.95281 | 2791 ft | 267 kts | 146° |
| 2026-05-04 08:02 | 1.17854 | 104.05913 | 6641 ft | 284 kts | 51° |
| 2026-05-04 08:02 | 1.19085 | 104.07466 | 7159 ft | 286 kts | 50° |
| 2026-05-04 08:02 | 1.20494 | 104.08872 | 7662 ft | 288 kts | 36° |
| 2026-05-04 08:03 | 1.22205 | 104.09923 | 8165 ft | 290 kts | 28° |
| 2026-05-04 08:03 | 1.23975 | 104.10908 | 8684 ft | 292 kts | 28° |
| 2026-05-04 08:03 | 1.25799 | 104.11822 | 9178 ft | 294 kts | 17° |
| 2026-05-04 08:03 | 1.27813 | 104.12153 | 9666 ft | 296 kts | 357° |
| 2026-05-04 08:04 | 1.29829 | 104.11759 | 10100 ft | 297 kts | 337° |
| 2026-05-04 08:04 | 1.31629 | 104.10674 | 10245 ft | 311 kts | 319° |
| 2026-05-04 08:04 | 1.33290 | 104.09253 | 10378 ft | 326 kts | 319° |
| 2026-05-04 08:04 | 1.35049 | 104.07744 | 10491 ft | 341 kts | 319° |
| 2026-05-04 08:05 | 1.36892 | 104.06167 | 10621 ft | 356 kts | 319° |
| 2026-05-04 08:05 | 1.38798 | 104.04543 | 10869 ft | 364 kts | 320° |
| 2026-05-04 08:05 | 1.40792 | 104.02959 | 11275 ft | 368 kts | 327° |
| 2026-05-04 08:05 | 1.43055 | 104.01759 | 11695 ft | 370 kts | 339° |
| 2026-05-04 08:06 | 1.45506 | 104.00937 | 12122 ft | 373 kts | 343° |
| 2026-05-04 08:06 | 1.47987 | 104.00145 | 12561 ft | 375 kts | 343° |
| 2026-05-04 08:06 | 1.50479 | 103.99340 | 13002 ft | 378 kts | 343° |
| 2026-05-04 08:06 | 1.52993 | 103.98523 | 13431 ft | 381 kts | 343° |
| 2026-05-04 08:08 | 1.71056 | 103.92669 | 16022 ft | 398 kts | 343° |
| 2026-05-04 08:08 | 1.73702 | 103.91814 | 16368 ft | 401 kts | 344° |
| 2026-05-04 08:10 | 1.96204 | 103.89889 | 18796 ft | 415 kts | 358° |
| 2026-05-04 08:11 | 1.99092 | 103.89706 | 19063 ft | 417 kts | 358° |
| 2026-05-04 08:11 | 2.03138 | 103.89444 | 19435 ft | 419 kts | 358° |
| 2026-05-04 08:11 | 2.06049 | 103.89256 | 19697 ft | 421 kts | 358° |
| 2026-05-04 08:12 | 2.08977 | 103.89070 | 19981 ft | 422 kts | 358° |
| 2026-05-04 08:12 | 2.11916 | 103.88884 | 20241 ft | 424 kts | 358° |
| 2026-05-04 08:12 | 2.14862 | 103.88697 | 20485 ft | 425 kts | 358° |
| 2026-05-04 08:12 | 2.17823 | 103.88507 | 20732 ft | 427 kts | 358° |
| 2026-05-04 08:13 | 2.20781 | 103.88313 | 20985 ft | 428 kts | 358° |
| 2026-05-04 08:13 | 2.23775 | 103.88120 | 21232 ft | 430 kts | 358° |
| 2026-05-04 08:13 | 2.26765 | 103.87930 | 21466 ft | 432 kts | 358° |
| 2026-05-04 08:13 | 2.29766 | 103.87740 | 21713 ft | 433 kts | 358° |
| 2026-05-04 08:14 | 2.32780 | 103.87551 | 21961 ft | 435 kts | 358° |
| 2026-05-04 08:14 | 2.35805 | 103.87518 | 22181 ft | 435 kts | 6° |
| 2026-05-04 08:14 | 2.38779 | 103.88012 | 22415 ft | 434 kts | 17° |
| 2026-05-04 08:16 | 2.57163 | 103.98571 | 23888 ft | 441 kts | 33° |
| 2026-05-04 08:16 | 2.59771 | 104.00194 | 24074 ft | 443 kts | 33° |
| 2026-05-04 08:16 | 2.62390 | 104.01821 | 24265 ft | 444 kts | 33° |
| 2026-05-04 08:17 | 2.65013 | 104.03451 | 24440 ft | 445 kts | 33° |
| 2026-05-04 08:17 | 2.67646 | 104.05090 | 24625 ft | 446 kts | 33° |
| 2026-05-04 08:17 | 2.70283 | 104.06733 | 24792 ft | 447 kts | 33° |
| 2026-05-04 08:17 | 2.72927 | 104.08381 | 24965 ft | 449 kts | 33° |
| 2026-05-04 08:19 | 2.91668 | 104.20046 | 26138 ft | 458 kts | 33° |
| 2026-05-04 08:19 | 2.94340 | 104.21712 | 26296 ft | 459 kts | 33° |
| 2026-05-04 08:20 | 2.97091 | 104.23426 | 26447 ft | 461 kts | 33° |
| 2026-05-04 08:20 | 2.99778 | 104.25100 | 26590 ft | 462 kts | 33° |
| 2026-05-04 08:20 | 3.02509 | 104.26801 | 26746 ft | 463 kts | 33° |
| 2026-05-04 08:20 | 3.05247 | 104.28507 | 26897 ft | 464 kts | 33° |
| 2026-05-04 08:21 | 3.07989 | 104.30226 | 27044 ft | 465 kts | 33° |
| 2026-05-04 08:21 | 3.10764 | 104.31981 | 27191 ft | 467 kts | 33° |
| 2026-05-04 08:21 | 3.13508 | 104.33728 | 27331 ft | 468 kts | 33° |
| 2026-05-04 08:21 | 3.16261 | 104.35470 | 27469 ft | 469 kts | 33° |
| 2026-05-04 08:22 | 3.18991 | 104.37175 | 27601 ft | 470 kts | 33° |
| 2026-05-04 08:22 | 3.21777 | 104.38897 | 27741 ft | 471 kts | 33° |
| 2026-05-04 08:24 | 3.41445 | 104.51085 | 28720 ft | 478 kts | 33° |
| 2026-05-04 08:24 | 3.44272 | 104.52838 | 28926 ft | 478 kts | 33° |
| 2026-05-04 08:24 | 3.47092 | 104.54591 | 29119 ft | 478 kts | 33° |
| 2026-05-04 08:24 | 3.49915 | 104.56347 | 29305 ft | 477 kts | 33° |
| 2026-05-04 08:25 | 3.52735 | 104.58101 | 29494 ft | 477 kts | 33° |
| 2026-05-04 08:25 | 3.55550 | 104.59854 | 29685 ft | 477 kts | 33° |
| 2026-05-04 08:25 | 3.58369 | 104.61608 | 29870 ft | 477 kts | 33° |
| 2026-05-04 08:25 | 3.61183 | 104.63357 | 30042 ft | 476 kts | 33° |
| 2026-05-04 08:26 | 3.64001 | 104.65109 | 30192 ft | 476 kts | 33° |
| 2026-05-04 08:27 | 3.83634 | 104.77311 | 31419 ft | 473 kts | 33° |
| 2026-05-04 08:28 | 3.86428 | 104.79049 | 31597 ft | 472 kts | 33° |
| 2026-05-04 08:28 | 3.89216 | 104.80783 | 31780 ft | 472 kts | 33° |
| 2026-05-04 08:28 | 3.94764 | 104.84237 | 31866 ft | 467 kts | 33° |
| 2026-05-04 08:29 | 4.00269 | 104.87662 | 31859 ft | 465 kts | 33° |
| 2026-05-04 08:31 | 4.22240 | 105.01354 | 31864 ft | 465 kts | 33° |
| 2026-05-04 08:33 | 4.44243 | 105.15011 | 31872 ft | 465 kts | 33° |
| 2026-05-04 08:35 | 4.66238 | 105.28700 | 31875 ft | 465 kts | 33° |
| 2026-05-04 08:35 | 4.71737 | 105.32113 | 31868 ft | 465 kts | 33° |
| 2026-05-04 08:37 | 4.89960 | 105.43659 | 31873 ft | 465 kts | 34° |
| 2026-05-04 08:38 | 4.95368 | 105.47225 | 31874 ft | 465 kts | 34° |
| 2026-05-04 08:38 | 5.00790 | 105.50773 | 31869 ft | 465 kts | 34° |
| 2026-05-04 08:40 | 5.22525 | 105.64921 | 31876 ft | 466 kts | 34° |
| 2026-05-04 08:41 | 5.27962 | 105.68455 | 31874 ft | 466 kts | 34° |
| 2026-05-04 08:41 | 5.33395 | 105.71987 | 31876 ft | 466 kts | 33° |
| 2026-05-04 08:42 | 5.38831 | 105.75530 | 31875 ft | 465 kts | 34° |
| 2026-05-04 08:42 | 5.44256 | 105.79074 | 31875 ft | 465 kts | 34° |
| 2026-05-04 08:43 | 5.49682 | 105.82622 | 31875 ft | 465 kts | 34° |
| 2026-05-04 08:43 | 5.55112 | 105.86165 | 31876 ft | 465 kts | 34° |
| 2026-05-04 08:44 | 5.60541 | 105.89704 | 31873 ft | 465 kts | 34° |
| 2026-05-04 08:46 | 5.82243 | 106.03865 | 31874 ft | 465 kts | 33° |
| 2026-05-04 08:46 | 5.87661 | 106.07415 | 31878 ft | 465 kts | 34° |
| 2026-05-04 08:47 | 5.93071 | 106.10957 | 31878 ft | 464 kts | 33° |
| 2026-05-04 08:47 | 5.98488 | 106.14495 | 31879 ft | 464 kts | 33° |
| 2026-05-04 08:48 | 6.03897 | 106.18028 | 31878 ft | 464 kts | 33° |
| 2026-05-04 08:48 | 6.09310 | 106.21562 | 31877 ft | 464 kts | 33° |
| 2026-05-04 08:49 | 6.14720 | 106.25096 | 31875 ft | 464 kts | 34° |
| 2026-05-04 08:50 | 6.33592 | 106.37449 | 31879 ft | 463 kts | 34° |
| 2026-05-04 08:51 | 6.38985 | 106.40981 | 31878 ft | 463 kts | 34° |
| 2026-05-04 08:51 | 6.44375 | 106.44512 | 31877 ft | 462 kts | 34° |
| 2026-05-04 08:52 | 6.49761 | 106.48046 | 31875 ft | 462 kts | 34° |
| 2026-05-04 08:52 | 6.55148 | 106.51583 | 31874 ft | 462 kts | 34° |
| 2026-05-04 08:54 | 6.76662 | 106.65685 | 31875 ft | 461 kts | 34° |
| 2026-05-04 08:55 | 6.82032 | 106.69210 | 31875 ft | 461 kts | 34° |
| 2026-05-04 08:55 | 6.87405 | 106.72728 | 31875 ft | 461 kts | 33° |
| 2026-05-04 09:01 | 7.43423 | 107.09582 | 31872 ft | 457 kts | 34° |
| 2026-05-04 09:01 | 7.48741 | 107.13096 | 31872 ft | 457 kts | 34° |
| 2026-05-04 09:02 | 7.54062 | 107.16599 | 31873 ft | 457 kts | 34° |
| 2026-05-04 09:02 | 7.59380 | 107.20103 | 31871 ft | 457 kts | 34° |
| 2026-05-04 09:03 | 7.64697 | 107.23613 | 31872 ft | 457 kts | 34° |
| 2026-05-04 09:03 | 7.70010 | 107.27125 | 31870 ft | 457 kts | 34° |
| 2026-05-04 09:04 | 7.75325 | 107.30636 | 31869 ft | 457 kts | 34° |
| 2026-05-04 09:04 | 7.80642 | 107.34143 | 31870 ft | 457 kts | 34° |
| 2026-05-04 09:05 | 7.85959 | 107.37647 | 31867 ft | 457 kts | 34° |
| 2026-05-04 09:05 | 7.91272 | 107.41161 | 31868 ft | 457 kts | 34° |
| 2026-05-04 09:06 | 7.96580 | 107.44674 | 31866 ft | 457 kts | 34° |
| 2026-05-04 09:08 | 8.17830 | 107.58752 | 31867 ft | 457 kts | 34° |
| 2026-05-04 09:08 | 8.23147 | 107.62269 | 31866 ft | 457 kts | 35° |
| 2026-05-04 09:09 | 8.28463 | 107.65776 | 31867 ft | 457 kts | 35° |
| 2026-05-04 09:09 | 8.33776 | 107.69291 | 31865 ft | 457 kts | 35° |